sensor_id;sensor_type;location;lat;lon;timestamp;P1;durP1;ratioP1;P2;durP2;ratioP2
70975;SDS011;58635;51.198;6.010;2022-08-26T00:00:54;28.08;;;25.08;;
70975;SDS011;58635;51.198;6.010;2022-08-26T00:03:20;28.85;;;25.88;;
70975;SDS011;58635;51.198;6.010;2022-08-26T00:05:47;26.05;;;23.40;;
70975;SDS011;58635;51.198;6.010;2022-08-26T00:08:15;25.67;;;22.65;;
70975;SDS011;58635;51.198;6.010;2022-08-26T00:10:41;26.15;;;22.83;;
70975;SDS011;58635;51.198;6.010;2022-08-26T00:13:07;28.67;;;23.23;;
70975;SDS011;58635;51.198;6.010;2022-08-26T00:15:34;26.10;;;22.25;;
70975;SDS011;58635;51.198;6.010;2022-08-26T00:18:00;26.95;;;23.73;;
70975;SDS011;58635;51.198;6.010;2022-08-26T00:20:26;26.60;;;21.88;;
70975;SDS011;58635;51.198;6.010;2022-08-26T00:22:54;25.77;;;21.48;;
70975;SDS011;58635;51.198;6.010;2022-08-26T00:25:20;27.60;;;22.20;;
70975;SDS011;58635;51.198;6.010;2022-08-26T00:27:46;24.92;;;20.45;;
70975;SDS011;58635;51.198;6.010;2022-08-26T00:30:14;25.73;;;22.52;;
70975;SDS011;58635;51.198;6.010;2022-08-26T00:32:42;23.45;;;20.63;;
70975;SDS011;58635;51.198;6.010;2022-08-26T00:35:08;28.95;;;21.83;;
70975;SDS011;58635;51.198;6.010;2022-08-26T00:37:34;24.35;;;21.08;;
70975;SDS011;58635;51.198;6.010;2022-08-26T00:39:59;28.30;;;22.63;;
70975;SDS011;58635;51.198;6.010;2022-08-26T00:42:25;27.70;;;22.25;;
70975;SDS011;58635;51.198;6.010;2022-08-26T00:44:51;23.40;;;20.80;;
70975;SDS011;58635;51.198;6.010;2022-08-26T00:47:27;25.55;;;20.52;;
70975;SDS011;58635;51.198;6.010;2022-08-26T00:50:04;23.67;;;18.52;;
70975;SDS011;58635;51.198;6.010;2022-08-26T00:52:34;20.83;;;18.70;;
70975;SDS011;58635;51.198;6.010;2022-08-26T00:55:12;25.42;;;20.02;;
70975;SDS011;58635;51.198;6.010;2022-08-26T00:57:41;23.73;;;18.15;;
70975;SDS011;58635;51.198;6.010;2022-08-26T01:00:10;24.58;;;19.25;;
70975;SDS011;58635;51.198;6.010;2022-08-26T01:02:39;21.77;;;18.50;;
70975;SDS011;58635;51.198;6.010;2022-08-26T01:05:06;23.52;;;17.20;;
70975;SDS011;58635;51.198;6.010;2022-08-26T01:07:33;21.90;;;17.35;;
70975;SDS011;58635;51.198;6.010;2022-08-26T01:09:59;21.77;;;16.73;;
70975;SDS011;58635;51.198;6.010;2022-08-26T01:12:28;20.52;;;17.00;;
70975;SDS011;58635;51.198;6.010;2022-08-26T01:14:57;22.45;;;16.38;;
70975;SDS011;58635;51.198;6.010;2022-08-26T01:17:23;20.13;;;14.77;;
70975;SDS011;58635;51.198;6.010;2022-08-26T01:19:50;18.45;;;14.98;;
70975;SDS011;58635;51.198;6.010;2022-08-26T01:22:37;18.45;;;15.38;;
70975;SDS011;58635;51.198;6.010;2022-08-26T01:25:26;19.77;;;14.75;;
70975;SDS011;58635;51.198;6.010;2022-08-26T01:27:55;23.30;;;15.50;;
70975;SDS011;58635;51.198;6.010;2022-08-26T01:30:23;19.10;;;13.82;;
70975;SDS011;58635;51.198;6.010;2022-08-26T01:32:50;17.13;;;12.05;;
70975;SDS011;58635;51.198;6.010;2022-08-26T01:35:16;15.70;;;14.00;;
70975;SDS011;58635;51.198;6.010;2022-08-26T01:37:42;16.20;;;12.93;;
70975;SDS011;58635;51.198;6.010;2022-08-26T01:40:09;19.25;;;13.68;;
70975;SDS011;58635;51.198;6.010;2022-08-26T01:42:40;16.73;;;12.00;;
70975;SDS011;58635;51.198;6.010;2022-08-26T01:45:11;15.40;;;12.27;;
70975;SDS011;58635;51.198;6.010;2022-08-26T01:47:40;15.80;;;10.93;;
70975;SDS011;58635;51.198;6.010;2022-08-26T01:50:08;12.85;;;11.40;;
70975;SDS011;58635;51.198;6.010;2022-08-26T01:52:38;12.63;;;10.82;;
70975;SDS011;58635;51.198;6.010;2022-08-26T01:55:06;13.00;;;10.68;;
70975;SDS011;58635;51.198;6.010;2022-08-26T01:57:33;17.67;;;11.85;;
70975;SDS011;58635;51.198;6.010;2022-08-26T02:00:05;13.43;;;9.82;;
70975;SDS011;58635;51.198;6.010;2022-08-26T02:02:34;16.60;;;10.05;;
70975;SDS011;58635;51.198;6.010;2022-08-26T02:05:01;14.50;;;9.35;;
70975;SDS011;58635;51.198;6.010;2022-08-26T02:07:29;13.52;;;9.38;;
70975;SDS011;58635;51.198;6.010;2022-08-26T02:09:57;12.68;;;8.73;;
70975;SDS011;58635;51.198;6.010;2022-08-26T02:12:23;14.20;;;8.48;;
70975;SDS011;58635;51.198;6.010;2022-08-26T02:14:51;14.40;;;8.52;;
70975;SDS011;58635;51.198;6.010;2022-08-26T02:17:21;12.35;;;7.85;;
70975;SDS011;58635;51.198;6.010;2022-08-26T02:19:50;13.20;;;7.88;;
70975;SDS011;58635;51.198;6.010;2022-08-26T02:22:17;13.48;;;8.00;;
70975;SDS011;58635;51.198;6.010;2022-08-26T02:24:52;10.77;;;6.90;;
70975;SDS011;58635;51.198;6.010;2022-08-26T02:27:21;15.63;;;8.25;;
70975;SDS011;58635;51.198;6.010;2022-08-26T02:29:56;10.07;;;6.70;;
70975;SDS011;58635;51.198;6.010;2022-08-26T02:32:25;14.65;;;6.40;;
70975;SDS011;58635;51.198;6.010;2022-08-26T02:34:50;11.35;;;6.65;;
70975;SDS011;58635;51.198;6.010;2022-08-26T02:37:16;12.32;;;6.22;;
70975;SDS011;58635;51.198;6.010;2022-08-26T02:39:42;12.45;;;6.50;;
70975;SDS011;58635;51.198;6.010;2022-08-26T02:42:07;10.02;;;5.68;;
70975;SDS011;58635;51.198;6.010;2022-08-26T02:44:34;11.85;;;5.88;;
70975;SDS011;58635;51.198;6.010;2022-08-26T02:46:59;9.05;;;5.53;;
70975;SDS011;58635;51.198;6.010;2022-08-26T02:49:25;11.45;;;6.13;;
70975;SDS011;58635;51.198;6.010;2022-08-26T02:51:51;12.30;;;5.72;;
70975;SDS011;58635;51.198;6.010;2022-08-26T02:54:18;10.50;;;5.70;;
70975;SDS011;58635;51.198;6.010;2022-08-26T02:56:45;10.20;;;5.63;;
70975;SDS011;58635;51.198;6.010;2022-08-26T02:59:11;8.48;;;5.20;;
70975;SDS011;58635;51.198;6.010;2022-08-26T03:01:37;9.60;;;5.00;;
70975;SDS011;58635;51.198;6.010;2022-08-26T03:04:05;9.57;;;5.35;;
70975;SDS011;58635;51.198;6.010;2022-08-26T03:06:31;7.78;;;4.47;;
70975;SDS011;58635;51.198;6.010;2022-08-26T03:08:57;9.52;;;5.15;;
70975;SDS011;58635;51.198;6.010;2022-08-26T03:11:23;9.20;;;5.50;;
70975;SDS011;58635;51.198;6.010;2022-08-26T03:13:49;7.60;;;4.63;;
70975;SDS011;58635;51.198;6.010;2022-08-26T03:16:15;7.65;;;4.68;;
70975;SDS011;58635;51.198;6.010;2022-08-26T03:18:40;11.25;;;5.40;;
70975;SDS011;58635;51.198;6.010;2022-08-26T03:21:10;7.43;;;4.35;;
70975;SDS011;58635;51.198;6.010;2022-08-26T03:23:38;8.82;;;5.10;;
70975;SDS011;58635;51.198;6.010;2022-08-26T03:26:06;10.98;;;5.30;;
70975;SDS011;58635;51.198;6.010;2022-08-26T03:28:32;7.85;;;4.60;;
70975;SDS011;58635;51.198;6.010;2022-08-26T03:30:58;9.10;;;4.35;;
70975;SDS011;58635;51.198;6.010;2022-08-26T03:33:24;7.82;;;4.18;;
70975;SDS011;58635;51.198;6.010;2022-08-26T03:35:50;11.52;;;4.78;;
70975;SDS011;58635;51.198;6.010;2022-08-26T03:38:19;9.57;;;5.10;;
70975;SDS011;58635;51.198;6.010;2022-08-26T03:40:47;5.35;;;3.97;;
70975;SDS011;58635;51.198;6.010;2022-08-26T03:43:13;7.70;;;4.28;;
70975;SDS011;58635;51.198;6.010;2022-08-26T03:45:40;6.10;;;3.95;;
70975;SDS011;58635;51.198;6.010;2022-08-26T03:48:06;9.32;;;4.78;;
70975;SDS011;58635;51.198;6.010;2022-08-26T03:50:32;9.00;;;4.35;;
70975;SDS011;58635;51.198;6.010;2022-08-26T03:52:59;11.02;;;4.55;;
70975;SDS011;58635;51.198;6.010;2022-08-26T03:55:26;10.85;;;4.43;;
70975;SDS011;58635;51.198;6.010;2022-08-26T03:57:55;7.75;;;4.50;;
70975;SDS011;58635;51.198;6.010;2022-08-26T04:00:20;8.30;;;4.03;;
70975;SDS011;58635;51.198;6.010;2022-08-26T04:02:46;10.27;;;4.28;;
70975;SDS011;58635;51.198;6.010;2022-08-26T04:05:15;8.50;;;4.25;;
70975;SDS011;58635;51.198;6.010;2022-08-26T04:07:43;7.40;;;3.88;;
70975;SDS011;58635;51.198;6.010;2022-08-26T04:10:10;9.07;;;4.20;;
70975;SDS011;58635;51.198;6.010;2022-08-26T04:12:37;9.85;;;4.35;;
70975;SDS011;58635;51.198;6.010;2022-08-26T04:15:04;8.65;;;4.43;;
70975;SDS011;58635;51.198;6.010;2022-08-26T04:17:31;9.23;;;4.13;;
70975;SDS011;58635;51.198;6.010;2022-08-26T04:19:57;8.80;;;4.10;;
70975;SDS011;58635;51.198;6.010;2022-08-26T04:22:22;7.53;;;4.28;;
70975;SDS011;58635;51.198;6.010;2022-08-26T04:24:48;11.68;;;4.63;;
70975;SDS011;58635;51.198;6.010;2022-08-26T04:27:13;10.73;;;4.10;;
70975;SDS011;58635;51.198;6.010;2022-08-26T04:29:38;7.43;;;3.90;;
70975;SDS011;58635;51.198;6.010;2022-08-26T04:32:05;6.28;;;3.60;;
70975;SDS011;58635;51.198;6.010;2022-08-26T04:34:32;11.38;;;3.72;;
70975;SDS011;58635;51.198;6.010;2022-08-26T04:36:58;7.32;;;3.20;;
70975;SDS011;58635;51.198;6.010;2022-08-26T04:39:24;8.57;;;3.42;;
70975;SDS011;58635;51.198;6.010;2022-08-26T04:41:49;9.55;;;3.53;;
70975;SDS011;58635;51.198;6.010;2022-08-26T04:44:15;7.80;;;3.30;;
70975;SDS011;58635;51.198;6.010;2022-08-26T04:46:41;7.85;;;3.08;;
70975;SDS011;58635;51.198;6.010;2022-08-26T04:49:07;9.80;;;3.58;;
70975;SDS011;58635;51.198;6.010;2022-08-26T04:51:33;9.82;;;3.47;;
70975;SDS011;58635;51.198;6.010;2022-08-26T04:54:02;6.72;;;2.97;;
70975;SDS011;58635;51.198;6.010;2022-08-26T04:56:32;6.88;;;3.08;;
70975;SDS011;58635;51.198;6.010;2022-08-26T04:59:02;11.07;;;3.35;;
70975;SDS011;58635;51.198;6.010;2022-08-26T05:01:32;7.47;;;3.10;;
70975;SDS011;58635;51.198;6.010;2022-08-26T05:03:58;8.45;;;2.78;;
70975;SDS011;58635;51.198;6.010;2022-08-26T05:06:23;7.80;;;3.42;;
70975;SDS011;58635;51.198;6.010;2022-08-26T05:08:50;7.82;;;3.20;;
70975;SDS011;58635;51.198;6.010;2022-08-26T05:11:15;8.18;;;3.80;;
70975;SDS011;58635;51.198;6.010;2022-08-26T05:13:40;8.38;;;3.42;;
70975;SDS011;58635;51.198;6.010;2022-08-26T05:16:07;7.68;;;3.28;;
70975;SDS011;58635;51.198;6.010;2022-08-26T05:18:36;10.63;;;3.50;;
70975;SDS011;58635;51.198;6.010;2022-08-26T05:21:02;8.52;;;3.00;;
70975;SDS011;58635;51.198;6.010;2022-08-26T05:23:28;9.93;;;3.30;;
70975;SDS011;58635;51.198;6.010;2022-08-26T05:25:56;4.90;;;2.70;;
70975;SDS011;58635;51.198;6.010;2022-08-26T05:28:23;8.30;;;3.28;;
70975;SDS011;58635;51.198;6.010;2022-08-26T05:30:49;5.95;;;3.00;;
70975;SDS011;58635;51.198;6.010;2022-08-26T05:33:15;10.30;;;3.42;;
70975;SDS011;58635;51.198;6.010;2022-08-26T05:35:42;7.30;;;2.70;;
70975;SDS011;58635;51.198;6.010;2022-08-26T05:38:10;9.00;;;3.10;;
70975;SDS011;58635;51.198;6.010;2022-08-26T05:40:42;6.30;;;2.83;;
70975;SDS011;58635;51.198;6.010;2022-08-26T05:43:09;10.68;;;2.90;;
70975;SDS011;58635;51.198;6.010;2022-08-26T05:45:36;6.72;;;2.42;;
70975;SDS011;58635;51.198;6.010;2022-08-26T05:48:03;9.55;;;2.22;;
70975;SDS011;58635;51.198;6.010;2022-08-26T05:50:34;7.95;;;2.95;;
70975;SDS011;58635;51.198;6.010;2022-08-26T05:53:04;6.50;;;2.40;;
70975;SDS011;58635;51.198;6.010;2022-08-26T05:55:30;6.15;;;2.30;;
70975;SDS011;58635;51.198;6.010;2022-08-26T05:57:57;7.63;;;2.75;;
70975;SDS011;58635;51.198;6.010;2022-08-26T06:00:22;9.75;;;2.47;;
70975;SDS011;58635;51.198;6.010;2022-08-26T06:02:47;9.63;;;2.35;;
70975;SDS011;58635;51.198;6.010;2022-08-26T06:05:13;8.52;;;2.15;;
70975;SDS011;58635;51.198;6.010;2022-08-26T06:07:38;5.63;;;2.20;;
70975;SDS011;58635;51.198;6.010;2022-08-26T06:10:22;6.95;;;2.00;;
70975;SDS011;58635;51.198;6.010;2022-08-26T06:12:48;6.05;;;2.38;;
70975;SDS011;58635;51.198;6.010;2022-08-26T06:15:13;12.07;;;2.92;;
70975;SDS011;58635;51.198;6.010;2022-08-26T06:17:39;11.82;;;6.60;;
70975;SDS011;58635;51.198;6.010;2022-08-26T06:20:05;8.75;;;2.50;;
70975;SDS011;58635;51.198;6.010;2022-08-26T06:22:30;8.52;;;2.72;;
70975;SDS011;58635;51.198;6.010;2022-08-26T06:25:14;12.52;;;2.88;;
70975;SDS011;58635;51.198;6.010;2022-08-26T06:27:58;6.22;;;2.50;;
70975;SDS011;58635;51.198;6.010;2022-08-26T06:30:24;6.82;;;2.30;;
70975;SDS011;58635;51.198;6.010;2022-08-26T06:32:49;9.20;;;4.63;;
70975;SDS011;58635;51.198;6.010;2022-08-26T06:35:14;9.13;;;3.00;;
70975;SDS011;58635;51.198;6.010;2022-08-26T06:37:40;7.60;;;2.90;;
70975;SDS011;58635;51.198;6.010;2022-08-26T06:40:06;10.82;;;3.50;;
70975;SDS011;58635;51.198;6.010;2022-08-26T06:42:32;9.00;;;3.85;;
70975;SDS011;58635;51.198;6.010;2022-08-26T06:44:57;10.00;;;3.58;;
70975;SDS011;58635;51.198;6.010;2022-08-26T06:47:23;7.20;;;2.45;;
70975;SDS011;58635;51.198;6.010;2022-08-26T06:49:49;8.13;;;2.30;;
70975;SDS011;58635;51.198;6.010;2022-08-26T06:52:15;8.40;;;2.35;;
70975;SDS011;58635;51.198;6.010;2022-08-26T06:54:41;10.82;;;2.40;;
70975;SDS011;58635;51.198;6.010;2022-08-26T06:57:07;12.00;;;2.03;;
70975;SDS011;58635;51.198;6.010;2022-08-26T06:59:33;6.60;;;1.92;;
70975;SDS011;58635;51.198;6.010;2022-08-26T07:01:59;8.15;;;2.17;;
70975;SDS011;58635;51.198;6.010;2022-08-26T07:04:24;7.78;;;2.10;;
70975;SDS011;58635;51.198;6.010;2022-08-26T07:06:52;10.95;;;2.28;;
70975;SDS011;58635;51.198;6.010;2022-08-26T07:09:18;9.48;;;2.10;;
70975;SDS011;58635;51.198;6.010;2022-08-26T07:11:44;7.65;;;2.17;;
70975;SDS011;58635;51.198;6.010;2022-08-26T07:14:09;9.30;;;2.20;;
70975;SDS011;58635;51.198;6.010;2022-08-26T07:16:37;9.00;;;2.90;;
70975;SDS011;58635;51.198;6.010;2022-08-26T07:19:03;7.47;;;2.45;;
70975;SDS011;58635;51.198;6.010;2022-08-26T07:21:28;8.07;;;2.95;;
70975;SDS011;58635;51.198;6.010;2022-08-26T07:23:54;4.18;;;2.15;;
70975;SDS011;58635;51.198;6.010;2022-08-26T07:26:24;7.30;;;2.30;;
70975;SDS011;58635;51.198;6.010;2022-08-26T07:28:52;7.32;;;1.80;;
70975;SDS011;58635;51.198;6.010;2022-08-26T07:31:19;6.93;;;2.00;;
70975;SDS011;58635;51.198;6.010;2022-08-26T07:33:46;7.55;;;2.17;;
70975;SDS011;58635;51.198;6.010;2022-08-26T07:36:12;6.13;;;2.35;;
70975;SDS011;58635;51.198;6.010;2022-08-26T07:38:39;6.18;;;1.90;;
70975;SDS011;58635;51.198;6.010;2022-08-26T07:41:06;8.30;;;2.58;;
70975;SDS011;58635;51.198;6.010;2022-08-26T07:43:33;7.90;;;2.10;;
70975;SDS011;58635;51.198;6.010;2022-08-26T07:46:00;5.80;;;1.63;;
70975;SDS011;58635;51.198;6.010;2022-08-26T07:48:26;6.25;;;2.30;;
70975;SDS011;58635;51.198;6.010;2022-08-26T07:50:51;6.68;;;1.88;;
70975;SDS011;58635;51.198;6.010;2022-08-26T07:53:17;6.20;;;1.92;;
70975;SDS011;58635;51.198;6.010;2022-08-26T07:55:44;9.40;;;2.47;;
70975;SDS011;58635;51.198;6.010;2022-08-26T07:58:09;6.50;;;1.90;;
70975;SDS011;58635;51.198;6.010;2022-08-26T08:00:34;9.30;;;2.28;;
70975;SDS011;58635;51.198;6.010;2022-08-26T08:03:00;6.32;;;1.88;;
70975;SDS011;58635;51.198;6.010;2022-08-26T08:05:28;6.00;;;1.90;;
70975;SDS011;58635;51.198;6.010;2022-08-26T08:07:56;5.88;;;1.83;;
70975;SDS011;58635;51.198;6.010;2022-08-26T08:10:23;7.78;;;2.03;;
70975;SDS011;58635;51.198;6.010;2022-08-26T08:12:50;6.90;;;2.25;;
70975;SDS011;58635;51.198;6.010;2022-08-26T08:15:17;9.13;;;2.10;;
70975;SDS011;58635;51.198;6.010;2022-08-26T08:17:45;7.60;;;2.05;;
70975;SDS011;58635;51.198;6.010;2022-08-26T08:20:11;7.03;;;1.55;;
70975;SDS011;58635;51.198;6.010;2022-08-26T08:22:38;7.43;;;2.13;;
70975;SDS011;58635;51.198;6.010;2022-08-26T08:25:04;9.10;;;3.60;;
70975;SDS011;58635;51.198;6.010;2022-08-26T08:27:33;10.10;;;3.08;;
70975;SDS011;58635;51.198;6.010;2022-08-26T08:30:01;9.65;;;2.28;;
70975;SDS011;58635;51.198;6.010;2022-08-26T08:32:27;7.88;;;2.00;;
70975;SDS011;58635;51.198;6.010;2022-08-26T08:34:53;5.38;;;1.80;;
70975;SDS011;58635;51.198;6.010;2022-08-26T08:37:20;5.20;;;1.80;;
70975;SDS011;58635;51.198;6.010;2022-08-26T08:39:45;9.27;;;2.03;;
70975;SDS011;58635;51.198;6.010;2022-08-26T08:44:56;6.28;;;1.90;;
70975;SDS011;58635;51.198;6.010;2022-08-26T08:47:31;9.82;;;2.30;;
70975;SDS011;58635;51.198;6.010;2022-08-26T08:50:04;10.02;;;1.98;;
70975;SDS011;58635;51.198;6.010;2022-08-26T08:52:36;5.10;;;1.70;;
70975;SDS011;58635;51.198;6.010;2022-08-26T08:55:08;5.07;;;1.67;;
70975;SDS011;58635;51.198;6.010;2022-08-26T08:57:51;6.03;;;1.83;;
70975;SDS011;58635;51.198;6.010;2022-08-26T09:00:25;9.27;;;2.50;;
70975;SDS011;58635;51.198;6.010;2022-08-26T09:02:58;6.47;;;1.88;;
70975;SDS011;58635;51.198;6.010;2022-08-26T09:05:31;9.00;;;1.95;;
70975;SDS011;58635;51.198;6.010;2022-08-26T09:08:05;6.60;;;1.48;;
70975;SDS011;58635;51.198;6.010;2022-08-26T09:13:00;6.45;;;3.17;;
70975;SDS011;58635;51.198;6.010;2022-08-26T09:20:54;5.15;;;1.80;;
70975;SDS011;58635;51.198;6.010;2022-08-26T09:23:20;11.60;;;5.28;;
70975;SDS011;58635;51.198;6.010;2022-08-26T09:26:00;9.35;;;3.42;;
70975;SDS011;58635;51.198;6.010;2022-08-26T09:28:29;8.50;;;2.60;;
70975;SDS011;58635;51.198;6.010;2022-08-26T09:31:18;7.47;;;1.90;;
70975;SDS011;58635;51.198;6.010;2022-08-26T09:34:03;7.53;;;1.85;;
70975;SDS011;58635;51.198;6.010;2022-08-26T09:39:24;5.70;;;1.77;;
70975;SDS011;58635;51.198;6.010;2022-08-26T09:45:03;9.23;;;3.92;;
70975;SDS011;58635;51.198;6.010;2022-08-26T09:55:51;4.63;;;1.92;;
70975;SDS011;58635;51.198;6.010;2022-08-26T09:58:35;8.38;;;2.10;;
70975;SDS011;58635;51.198;6.010;2022-08-26T10:01:08;7.40;;;2.20;;
70975;SDS011;58635;51.198;6.010;2022-08-26T10:03:40;7.63;;;2.70;;
70975;SDS011;58635;51.198;6.010;2022-08-26T10:08:42;7.50;;;2.90;;
70975;SDS011;58635;51.198;6.010;2022-08-26T10:14:17;6.93;;;1.92;;
70975;SDS011;58635;51.198;6.010;2022-08-26T10:19:39;8.38;;;2.05;;
70975;SDS011;58635;51.198;6.010;2022-08-26T10:22:13;7.85;;;2.22;;
70975;SDS011;58635;51.198;6.010;2022-08-26T10:24:48;8.60;;;2.00;;
70975;SDS011;58635;51.198;6.010;2022-08-26T10:27:30;9.10;;;2.00;;
70975;SDS011;58635;51.198;6.010;2022-08-26T10:30:05;4.80;;;1.50;;
70975;SDS011;58635;51.198;6.010;2022-08-26T10:32:38;6.00;;;1.98;;
70975;SDS011;58635;51.198;6.010;2022-08-26T10:35:06;6.90;;;1.85;;
70975;SDS011;58635;51.198;6.010;2022-08-26T10:37:36;8.48;;;1.70;;
70975;SDS011;58635;51.198;6.010;2022-08-26T10:46:11;11.70;;;2.20;;
70975;SDS011;58635;51.198;6.010;2022-08-26T10:48:54;9.80;;;5.10;;
70975;SDS011;58635;51.198;6.010;2022-08-26T10:51:31;9.93;;;4.28;;
70975;SDS011;58635;51.198;6.010;2022-08-26T11:02:13;8.68;;;2.83;;
70975;SDS011;58635;51.198;6.010;2022-08-26T11:05:04;10.95;;;4.03;;
70975;SDS011;58635;51.198;6.010;2022-08-26T11:07:42;7.05;;;1.80;;
70975;SDS011;58635;51.198;6.010;2022-08-26T11:10:17;6.18;;;1.70;;
70975;SDS011;58635;51.198;6.010;2022-08-26T11:13:07;4.10;;;1.70;;
70975;SDS011;58635;51.198;6.010;2022-08-26T11:18:08;6.88;;;1.92;;
70975;SDS011;58635;51.198;6.010;2022-08-26T11:20:42;6.15;;;1.73;;
70975;SDS011;58635;51.198;6.010;2022-08-26T11:28:36;8.50;;;1.80;;
70975;SDS011;58635;51.198;6.010;2022-08-26T11:31:07;4.88;;;1.58;;
70975;SDS011;58635;51.198;6.010;2022-08-26T11:33:56;5.70;;;1.73;;
70975;SDS011;58635;51.198;6.010;2022-08-26T11:36:40;7.10;;;1.60;;
70975;SDS011;58635;51.198;6.010;2022-08-26T11:39:13;4.43;;;1.58;;
70975;SDS011;58635;51.198;6.010;2022-08-26T11:41:46;8.60;;;1.80;;
70975;SDS011;58635;51.198;6.010;2022-08-26T11:44:23;5.43;;;1.85;;
70975;SDS011;58635;51.198;6.010;2022-08-26T11:46:53;7.00;;;2.17;;
70975;SDS011;58635;51.198;6.010;2022-08-26T11:49:20;7.40;;;1.95;;
70975;SDS011;58635;51.198;6.010;2022-08-26T11:51:46;7.47;;;1.85;;
70975;SDS011;58635;51.198;6.010;2022-08-26T11:54:13;8.88;;;2.00;;
70975;SDS011;58635;51.198;6.010;2022-08-26T11:56:44;6.93;;;1.80;;
70975;SDS011;58635;51.198;6.010;2022-08-26T11:59:14;10.95;;;2.03;;
70975;SDS011;58635;51.198;6.010;2022-08-26T12:01:47;6.97;;;1.77;;
70975;SDS011;58635;51.198;6.010;2022-08-26T12:04:24;8.13;;;2.60;;
70975;SDS011;58635;51.198;6.010;2022-08-26T12:06:53;7.53;;;2.17;;
70975;SDS011;58635;51.198;6.010;2022-08-26T12:09:20;6.45;;;1.77;;
70975;SDS011;58635;51.198;6.010;2022-08-26T12:11:48;8.23;;;2.20;;
70975;SDS011;58635;51.198;6.010;2022-08-26T12:14:19;7.50;;;2.20;;
70975;SDS011;58635;51.198;6.010;2022-08-26T12:16:48;7.82;;;2.20;;
70975;SDS011;58635;51.198;6.010;2022-08-26T12:19:20;11.95;;;2.10;;
70975;SDS011;58635;51.198;6.010;2022-08-26T12:22:00;5.07;;;2.05;;
70975;SDS011;58635;51.198;6.010;2022-08-26T12:24:28;4.75;;;1.77;;
70975;SDS011;58635;51.198;6.010;2022-08-26T12:27:05;6.35;;;1.92;;
70975;SDS011;58635;51.198;6.010;2022-08-26T12:29:39;6.93;;;2.15;;
70975;SDS011;58635;51.198;6.010;2022-08-26T12:32:13;8.55;;;2.38;;
70975;SDS011;58635;51.198;6.010;2022-08-26T12:34:42;7.57;;;2.53;;
70975;SDS011;58635;51.198;6.010;2022-08-26T12:37:09;5.88;;;2.92;;
70975;SDS011;58635;51.198;6.010;2022-08-26T12:39:38;11.85;;;2.65;;
70975;SDS011;58635;51.198;6.010;2022-08-26T12:44:42;7.85;;;2.00;;
70975;SDS011;58635;51.198;6.010;2022-08-26T12:47:16;7.75;;;2.28;;
70975;SDS011;58635;51.198;6.010;2022-08-26T12:52:59;7.20;;;2.53;;
70975;SDS011;58635;51.198;6.010;2022-08-26T13:00:41;8.68;;;3.00;;
70975;SDS011;58635;51.198;6.010;2022-08-26T13:14:09;11.32;;;2.90;;
70975;SDS011;58635;51.198;6.010;2022-08-26T13:16:40;9.93;;;2.63;;
70975;SDS011;58635;51.198;6.010;2022-08-26T13:19:07;6.00;;;2.53;;
70975;SDS011;58635;51.198;6.010;2022-08-26T13:21:36;10.07;;;2.88;;
70975;SDS011;58635;51.198;6.010;2022-08-26T13:24:09;9.40;;;3.00;;
70975;SDS011;58635;51.198;6.010;2022-08-26T13:26:40;9.23;;;2.90;;
70975;SDS011;58635;51.198;6.010;2022-08-26T13:29:07;7.07;;;2.90;;
70975;SDS011;58635;51.198;6.010;2022-08-26T13:31:35;8.73;;;3.03;;
70975;SDS011;58635;51.198;6.010;2022-08-26T13:34:02;6.95;;;2.65;;
70975;SDS011;58635;51.198;6.010;2022-08-26T13:36:28;8.65;;;2.88;;
70975;SDS011;58635;51.198;6.010;2022-08-26T13:38:54;7.43;;;2.75;;
70975;SDS011;58635;51.198;6.010;2022-08-26T13:41:19;11.98;;;3.38;;
70975;SDS011;58635;51.198;6.010;2022-08-26T13:43:44;9.13;;;3.03;;
70975;SDS011;58635;51.198;6.010;2022-08-26T13:46:18;9.57;;;2.90;;
70975;SDS011;58635;51.198;6.010;2022-08-26T13:48:45;7.35;;;2.45;;
70975;SDS011;58635;51.198;6.010;2022-08-26T13:51:10;10.40;;;2.78;;
70975;SDS011;58635;51.198;6.010;2022-08-26T13:53:36;7.50;;;2.80;;
70975;SDS011;58635;51.198;6.010;2022-08-26T13:56:01;9.95;;;3.03;;
70975;SDS011;58635;51.198;6.010;2022-08-26T13:58:27;7.75;;;2.60;;
70975;SDS011;58635;51.198;6.010;2022-08-26T14:00:55;6.47;;;2.97;;
70975;SDS011;58635;51.198;6.010;2022-08-26T14:03:22;8.30;;;2.38;;
70975;SDS011;58635;51.198;6.010;2022-08-26T14:05:48;6.03;;;2.80;;
70975;SDS011;58635;51.198;6.010;2022-08-26T14:08:15;5.53;;;3.00;;
70975;SDS011;58635;51.198;6.010;2022-08-26T14:10:40;9.70;;;2.50;;
70975;SDS011;58635;51.198;6.010;2022-08-26T14:13:06;6.93;;;2.55;;
70975;SDS011;58635;51.198;6.010;2022-08-26T14:15:32;6.25;;;2.50;;
70975;SDS011;58635;51.198;6.010;2022-08-26T14:18:00;8.38;;;3.15;;
70975;SDS011;58635;51.198;6.010;2022-08-26T14:20:28;9.48;;;4.90;;
70975;SDS011;58635;51.198;6.010;2022-08-26T14:22:54;6.38;;;2.67;;
70975;SDS011;58635;51.198;6.010;2022-08-26T14:25:20;7.00;;;2.60;;
70975;SDS011;58635;51.198;6.010;2022-08-26T14:27:49;7.55;;;2.63;;
70975;SDS011;58635;51.198;6.010;2022-08-26T14:30:17;12.55;;;3.00;;
70975;SDS011;58635;51.198;6.010;2022-08-26T14:32:44;8.30;;;3.00;;
70975;SDS011;58635;51.198;6.010;2022-08-26T14:35:15;6.07;;;2.78;;
70975;SDS011;58635;51.198;6.010;2022-08-26T14:37:43;6.47;;;2.63;;
70975;SDS011;58635;51.198;6.010;2022-08-26T14:40:09;8.07;;;3.15;;
70975;SDS011;58635;51.198;6.010;2022-08-26T14:42:42;7.18;;;3.22;;
70975;SDS011;58635;51.198;6.010;2022-08-26T14:45:11;7.85;;;3.00;;
70975;SDS011;58635;51.198;6.010;2022-08-26T14:47:42;8.23;;;2.80;;
70975;SDS011;58635;51.198;6.010;2022-08-26T14:50:12;6.70;;;1.92;;
70975;SDS011;58635;51.198;6.010;2022-08-26T14:52:39;6.60;;;2.92;;
70975;SDS011;58635;51.198;6.010;2022-08-26T14:55:24;5.50;;;2.45;;
70975;SDS011;58635;51.198;6.010;2022-08-26T14:57:50;7.32;;;2.88;;
70975;SDS011;58635;51.198;6.010;2022-08-26T15:00:16;10.80;;;4.95;;
70975;SDS011;58635;51.198;6.010;2022-08-26T15:02:42;9.00;;;3.47;;
70975;SDS011;58635;51.198;6.010;2022-08-26T15:05:08;5.25;;;2.80;;
70975;SDS011;58635;51.198;6.010;2022-08-26T15:07:35;8.88;;;2.67;;
70975;SDS011;58635;51.198;6.010;2022-08-26T15:10:01;7.32;;;2.60;;
70975;SDS011;58635;51.198;6.010;2022-08-26T15:12:26;5.78;;;2.80;;
70975;SDS011;58635;51.198;6.010;2022-08-26T15:14:52;8.73;;;2.22;;
70975;SDS011;58635;51.198;6.010;2022-08-26T15:17:17;5.93;;;2.58;;
70975;SDS011;58635;51.198;6.010;2022-08-26T15:19:43;9.90;;;3.05;;
70975;SDS011;58635;51.198;6.010;2022-08-26T15:22:08;4.85;;;1.98;;
70975;SDS011;58635;51.198;6.010;2022-08-26T15:24:34;8.52;;;2.80;;
70975;SDS011;58635;51.198;6.010;2022-08-26T15:27:00;9.05;;;2.75;;
70975;SDS011;58635;51.198;6.010;2022-08-26T15:29:25;6.57;;;2.33;;
70975;SDS011;58635;51.198;6.010;2022-08-26T15:31:51;4.75;;;2.25;;
70975;SDS011;58635;51.198;6.010;2022-08-26T15:34:16;10.18;;;6.47;;
70975;SDS011;58635;51.198;6.010;2022-08-26T15:36:42;8.85;;;3.95;;
70975;SDS011;58635;51.198;6.010;2022-08-26T15:39:10;7.13;;;4.80;;
70975;SDS011;58635;51.198;6.010;2022-08-26T15:41:35;9.45;;;2.97;;
70975;SDS011;58635;51.198;6.010;2022-08-26T15:44:01;5.93;;;2.65;;
70975;SDS011;58635;51.198;6.010;2022-08-26T15:46:28;8.88;;;2.85;;
70975;SDS011;58635;51.198;6.010;2022-08-26T15:48:53;5.82;;;2.72;;
70975;SDS011;58635;51.198;6.010;2022-08-26T15:51:23;7.68;;;2.85;;
70975;SDS011;58635;51.198;6.010;2022-08-26T15:53:53;8.38;;;2.97;;
70975;SDS011;58635;51.198;6.010;2022-08-26T15:56:22;10.85;;;2.30;;
70975;SDS011;58635;51.198;6.010;2022-08-26T15:58:51;6.63;;;2.28;;
70975;SDS011;58635;51.198;6.010;2022-08-26T16:01:18;6.43;;;2.63;;
70975;SDS011;58635;51.198;6.010;2022-08-26T16:03:44;6.60;;;2.42;;
70975;SDS011;58635;51.198;6.010;2022-08-26T16:06:13;8.88;;;2.45;;
70975;SDS011;58635;51.198;6.010;2022-08-26T16:08:40;5.45;;;2.40;;